This is the latest recevied weather packets stored in our database for station/object KC3QLX. If no packets are shown the sender has not sent any weather packets the latest 1 day(s).
| Time | Temp. | Humidity | Pressure | Rain* | Wind** | Luminosity | Snow |
|---|---|---|---|---|---|---|---|
| 1778079554 | 15.56° C | 98% | 1008.3 hPa | 3.05 mm | - | 26 W/m² | - |
| 1778077435 | 15.56° C | 97% | 1007.8 hPa | 3.05 mm | - | 91 W/m² | - |
| 1778077133 | 15.56° C | 97% | 1007.9 hPa | 3.05 mm | - | 85 W/m² | - |
| 1778074709 | 15.56° C | 96% | 1007.7 hPa | 1.27 mm | - | 57 W/m² | - |
| 1778073193 | 16.11° C | 92% | 1008.3 hPa | 0 mm | - | 38 W/m² | - |
| 1778072587 | 16.11° C | 90% | 1008.4 hPa | 1.78 mm | - | 39 W/m² | - |
| 1778072285 | 16.67° C | 90% | 1008.4 hPa | 0 mm | - | 37 W/m² | - |
| 1778071983 | 16.67° C | 89% | 1008.7 hPa | 0 mm | - | 35 W/m² | - |
| 1778071378 | 16.67° C | 89% | 1008.2 hPa | 0 mm | - | 40 W/m² | - |
| 1778070774 | 16.67° C | 88% | 1008.3 hPa | 0 mm | - | 49 W/m² | - |
| 1778069562 | 16.67° C | 86% | 1008.3 hPa | 0 mm | - | 39 W/m² | - |
| 1778068655 | 17.22° C | 85% | 1007.9 hPa | 0 mm | - | 41 W/m² | - |
| 1778068353 | 16.67° C | 86% | 1008.1 hPa | 0 mm | - | 30 W/m² | - |
| 1778065933 | 17.78° C | 81% | 1008 hPa | 0 mm | - | 17 W/m² | - |
| 1778065629 | 17.78° C | 80% | 1007.9 hPa | 0 mm | - | 9 W/m² | - |
| 1778065327 | 17.78° C | 79% | 1007.8 hPa | 0 mm | - | 9 W/m² | - |
| 1778064720 | 17.78° C | 79% | 1007.6 hPa | 0 mm | - | 10 W/m² | - |
| 1778061997 | 17.78° C | 76% | 1007.4 hPa | 0 mm | - | 3 W/m² | - |
| 1778061393 | 17.78° C | 76% | 1007.3 hPa | 0 mm | - | 0 W/m² | - |
| 1778059274 | 17.78° C | 73% | 1007.4 hPa | 0 mm | - | 0 W/m² | - |
| 1778058972 | 17.78° C | 74% | 1007.3 hPa | 0 mm | - | 0 W/m² | - |
| 1778057456 | 18.33° C | 71% | 1007.7 hPa | 0 mm | - | 0 W/m² | - |
| 1778056850 | 18.33° C | 70% | 1007.6 hPa | 0 mm | - | 0 W/m² | - |
| 1778056547 | 18.33° C | 70% | 1007.7 hPa | 0 mm | - | 0 W/m² | - |
| 1778056244 | 17.78° C | 69% | 1007.7 hPa | 0 mm | - | 0 W/m² | - |
* Rain latest hour (hover to see other rain measurements)
** Current wind speed in m/s (hover to see current wind gust speed)